Time;durP1;ratioP1;P1;durP2;ratioP2;P2;SDS_P1;SDS_P2;PMS_P1;PMS_P2;Temp;Humidity;BMP_temperature;BMP_pressure;BME280_temperature;BME280_humidity;BME280_pressure;Samples;Min_cycle;Max_cycle;Signal;HPM_P1;HPM_P2
2023/08/12 00:01:36;;;;;;;0.17;0.17;;;19.50;99.90;;;;;;5045147;28;20036;-68
2023/08/12 00:04:01;;;;;;;0.30;0.30;;;19.50;99.90;;;;;;5032268;28;20061;-68
2023/08/12 00:06:28;;;;;;;0.67;0.67;;;19.50;99.90;;;;;;5028105;28;20420;-68
2023/08/12 00:08:54;;;;;;;0.13;0.13;;;19.50;99.90;;;;;;5048902;28;20067;-68
2023/08/12 00:11:20;;;;;;;1.45;1.35;;;19.50;99.90;;;;;;5040927;28;20026;-68
2023/08/12 00:13:45;;;;;;;0.37;0.23;;;19.60;99.90;;;;;;5043426;28;20052;-68
2023/08/12 00:16:11;;;;;;;0.73;0.50;;;19.50;99.90;;;;;;5031316;28;20037;-68
2023/08/12 00:18:37;;;;;;;0.83;0.30;;;19.50;99.90;;;;;;5048339;28;20044;-68
2023/08/12 00:21:10;;;;;;;0.35;0.35;;;19.60;99.90;;;;;;5025043;28;20034;-68
2023/08/12 00:23:39;;;;;;;0.40;0.40;;;19.50;99.90;;;;;;5046252;28;20063;-68
2023/08/12 00:26:05;;;;;;;0.20;0.20;;;19.50;99.90;;;;;;5040394;28;21904;-68
2023/08/12 00:28:30;;;;;;;0.77;0.40;;;19.50;99.90;;;;;;5048864;28;20032;-68
2023/08/12 00:30:56;;;;;;;0.40;0.40;;;19.50;99.90;;;;;;5051619;28;20032;-68
2023/08/12 00:33:22;;;;;;;0.73;0.40;;;19.50;99.90;;;;;;5046984;28;20029;-68
2023/08/12 00:35:47;;;;;;;1.07;0.90;;;19.40;99.90;;;;;;5051441;28;20025;-68
2023/08/12 00:38:13;;;;;;;0.10;0.10;;;19.40;99.90;;;;;;5034050;28;20329;-69
2023/08/12 00:40:39;;;;;;;0.53;0.53;;;19.40;99.90;;;;;;5033109;28;20415;-68
2023/08/12 00:43:05;;;;;;;0.93;0.70;;;19.40;99.90;;;;;;5050403;28;20035;-68
2023/08/12 00:45:30;;;;;;;1.97;1.27;;;19.40;99.90;;;;;;5050245;28;20104;-68
2023/08/12 00:47:56;;;;;;;3.93;1.97;;;19.30;99.90;;;;;;5046445;28;20423;-69
2023/08/12 00:50:22;;;;;;;0.30;0.30;;;19.30;99.90;;;;;;5043289;28;20075;-68
2023/08/12 00:52:49;;;;;;;1.10;0.33;;;19.20;99.90;;;;;;5050871;28;20036;-68
2023/08/12 00:55:16;;;;;;;0.90;0.32;;;19.20;99.90;;;;;;5044547;28;20266;-68
2023/08/12 00:57:42;;;;;;;0.57;0.57;;;19.20;99.90;;;;;;5031903;28;20100;-69
2023/08/12 01:00:09;;;;;;;0.70;0.52;;;19.20;99.90;;;;;;5036371;28;20095;-68
2023/08/12 01:02:34;;;;;;;0.65;0.65;;;19.30;99.90;;;;;;5037157;28;20451;-68
2023/08/12 01:05:00;;;;;;;3.83;1.23;;;19.30;99.90;;;;;;5034060;28;20038;-85
2023/08/12 01:07:26;;;;;;;0.40;0.40;;;19.30;99.90;;;;;;5034337;28;20489;-68
2023/08/12 01:09:52;;;;;;;1.00;0.32;;;19.40;99.90;;;;;;5025099;28;20440;-68
2023/08/12 01:12:31;;;;;;;0.30;0.30;;;19.40;99.90;;;;;;5052696;28;20068;-68
2023/08/12 01:15:10;;;;;;;0.20;0.20;;;19.40;99.90;;;;;;5036395;28;20116;-68
2023/08/12 01:17:40;;;;;;;1.00;1.00;;;19.40;99.90;;;;;;5032757;28;20021;-68
2023/08/12 01:20:13;;;;;;;0.20;0.15;;;19.30;99.90;;;;;;5032128;28;20028;-68
2023/08/12 01:22:41;;;;;;;0.40;0.40;;;19.30;99.90;;;;;;5036779;28;20029;-68
2023/08/12 01:25:07;;;;;;;0.75;0.75;;;19.20;99.90;;;;;;5036735;28;20041;-68
2023/08/12 01:27:36;;;;;;;0.65;0.43;;;19.20;99.90;;;;;;5032795;28;20479;-68
2023/08/12 01:30:05;;;;;;;0.10;0.10;;;19.20;99.90;;;;;;5035318;28;20033;-69
2023/08/12 01:33:00;;;;;;;1.15;0.40;;;19.10;99.90;;;;;;5034422;28;20424;-68
2023/08/12 01:35:47;;;;;;;0.55;0.50;;;19.10;99.90;;;;;;5032477;28;20084;-68
2023/08/12 01:38:13;;;;;;;1.17;0.38;;;19.10;99.90;;;;;;5018105;28;20338;-68
2023/08/12 01:40:41;;;;;;;0.55;0.50;;;19.10;99.90;;;;;;5032340;28;20091;-68
2023/08/12 01:43:08;;;;;;;;;;;19.00;99.90;;;;;;5036753;28;20329;-68
2023/08/12 01:45:34;;;;;;;0.25;0.25;;;19.00;99.90;;;;;;5034998;28;19916;-69
2023/08/12 01:48:00;;;;;;;0.88;0.73;;;19.00;99.90;;;;;;5048291;28;20508;-68
2023/08/12 01:50:26;;;;;;;1.35;1.25;;;19.00;99.90;;;;;;5019530;28;20109;-68
2023/08/12 01:52:52;;;;;;;10.83;2.17;;;19.00;99.90;;;;;;5036511;28;20033;-68
2023/08/12 01:55:18;;;;;;;1.08;0.98;;;18.90;99.90;;;;;;5023519;28;20026;-69
2023/08/12 01:57:43;;;;;;;0.20;0.20;;;18.80;99.90;;;;;;5032764;28;20026;-68
2023/08/12 02:00:09;;;;;;;1.27;0.47;;;18.80;99.90;;;;;;5033706;28;20029;-68
2023/08/12 02:02:35;;;;;;;0.88;0.73;;;18.90;99.90;;;;;;5026721;28;20049;-68
2023/08/12 02:05:01;;;;;;;0.67;0.67;;;18.90;99.90;;;;;;5030477;28;20068;-68
2023/08/12 02:07:27;;;;;;;0.52;0.52;;;18.90;99.90;;;;;;5021328;28;20056;-68
2023/08/12 02:09:53;;;;;;;1.10;1.00;;;19.00;99.90;;;;;;5027127;28;20024;-68
2023/08/12 02:12:18;;;;;;;1.77;1.27;;;19.00;99.90;;;;;;5023628;28;20022;-68
2023/08/12 02:14:44;;;;;;;1.37;1.27;;;19.10;99.90;;;;;;5026164;28;21012;-68
2023/08/12 02:17:10;;;;;;;2.27;1.57;;;19.10;99.90;;;;;;5024013;28;20107;-83
2023/08/12 02:19:36;;;;;;;8.25;1.85;;;19.20;99.90;;;;;;5021367;28;20021;-68
2023/08/12 02:22:03;;;;;;;8.98;3.78;;;19.20;99.90;;;;;;5026184;28;20048;-68
2023/08/12 02:24:29;;;;;;;4.95;1.45;;;19.30;99.90;;;;;;5025155;28;20068;-68
2023/08/12 02:26:55;;;;;;;2.63;0.93;;;19.30;99.90;;;;;;5042555;28;20029;-68
2023/08/12 02:29:21;;;;;;;6.32;1.95;;;19.40;99.90;;;;;;5028242;28;20132;-86
2023/08/12 02:31:46;;;;;;;2.37;0.90;;;19.40;99.90;;;;;;5019272;28;20120;-68
2023/08/12 02:34:12;;;;;;;2.53;1.57;;;19.40;99.90;;;;;;5021816;28;20026;-69
2023/08/12 02:36:38;;;;;;;1.40;1.13;;;19.50;99.90;;;;;;5016431;28;20298;-68
2023/08/12 02:39:04;;;;;;;0.83;0.83;;;19.50;99.90;;;;;;5027437;28;20057;-68
2023/08/12 02:41:30;;;;;;;1.42;1.08;;;19.50;99.90;;;;;;5022145;28;20033;-68
2023/08/12 02:43:56;;;;;;;2.15;1.08;;;19.60;99.90;;;;;;5032937;28;20037;-68
2023/08/12 02:46:22;;;;;;;0.57;0.57;;;19.60;99.90;;;;;;5027129;28;20128;-68
2023/08/12 02:48:48;;;;;;;1.23;0.60;;;19.60;99.90;;;;;;5034884;28;20021;-68
2023/08/12 02:51:14;;;;;;;0.08;0.08;;;19.60;99.90;;;;;;5025997;28;20416;-82
2023/08/12 02:53:40;;;;;;;3.40;2.10;;;19.60;99.90;;;;;;5034404;28;20038;-68
2023/08/12 02:56:06;;;;;;;2.83;1.48;;;19.60;99.90;;;;;;5048637;28;20151;-68
2023/08/12 02:58:31;;;;;;;1.60;1.37;;;19.60;99.90;;;;;;5035038;28;20033;-68
2023/08/12 03:00:57;;;;;;;1.00;1.00;;;19.60;99.90;;;;;;5034633;28;20412;-68
2023/08/12 03:03:23;;;;;;;1.13;1.07;;;19.70;99.90;;;;;;5034819;28;20029;-68
2023/08/12 03:05:49;;;;;;;1.73;1.63;;;19.70;99.90;;;;;;5030769;28;20137;-68
2023/08/12 03:08:15;;;;;;;1.67;1.58;;;19.70;99.90;;;;;;5035088;28;20079;-68
2023/08/12 03:10:42;;;;;;;0.80;0.80;;;19.70;99.90;;;;;;5034457;28;20033;-69
2023/08/12 03:13:07;;;;;;;;;;;19.70;99.90;;;;;;5035163;28;20112;-68
2023/08/12 03:15:33;;;;;;;2.47;1.27;;;19.70;99.90;;;;;;5033256;28;20011;-68
2023/08/12 03:17:59;;;;;;;2.90;2.07;;;19.70;99.90;;;;;;5034331;28;20482;-87
2023/08/12 03:20:24;;;;;;;1.80;1.70;;;19.80;99.90;;;;;;5047568;28;20033;-69
2023/08/12 03:22:50;;;;;;;0.50;0.50;;;19.80;99.90;;;;;;5034265;28;20030;-68
2023/08/12 03:25:16;;;;;;;1.63;1.50;;;19.80;99.90;;;;;;5026192;28;20029;-68
2023/08/12 03:27:42;;;;;;;0.77;0.77;;;19.80;99.90;;;;;;5029230;28;20792;-68
2023/08/12 03:30:09;;;;;;;0.70;0.70;;;19.80;99.90;;;;;;5034725;28;20049;-68
2023/08/12 03:32:34;;;;;;;4.05;1.73;;;19.80;99.90;;;;;;5034999;28;20041;-68
2023/08/12 03:35:00;;;;;;;1.97;0.90;;;19.80;99.90;;;;;;5028404;28;20030;-88
2023/08/12 03:37:26;;;;;;;0.53;0.53;;;19.90;99.90;;;;;;5029809;28;20048;-69
2023/08/12 03:39:52;;;;;;;0.98;0.90;;;19.90;99.90;;;;;;5032630;28;20025;-68
2023/08/12 03:42:18;;;;;;;0.77;0.77;;;19.80;99.90;;;;;;5034577;28;20090;-68
2023/08/12 03:44:44;;;;;;;8.88;2.30;;;19.80;99.90;;;;;;5032092;28;20025;-68
2023/08/12 03:47:10;;;;;;;1.42;1.35;;;19.80;99.90;;;;;;5029506;28;20336;-68
2023/08/12 03:49:37;;;;;;;0.47;0.47;;;19.80;99.90;;;;;;5033277;28;20064;-68
2023/08/12 03:52:03;;;;;;;4.65;1.35;;;19.80;99.90;;;;;;5033699;28;20486;-69
2023/08/12 03:54:28;;;;;;;6.65;1.50;;;19.80;99.90;;;;;;5030618;28;20029;-68
2023/08/12 03:56:54;;;;;;;1.50;1.17;;;19.80;99.90;;;;;;5028885;28;20044;-68
2023/08/12 03:59:20;;;;;;;0.63;0.57;;;19.80;99.90;;;;;;5026852;28;20029;-68
2023/08/12 04:01:46;;;;;;;1.23;1.13;;;19.70;99.90;;;;;;5035527;28;20030;-68
2023/08/12 04:04:12;;;;;;;0.93;0.93;;;19.70;99.90;;;;;;5025778;28;20444;-68
2023/08/12 04:06:38;;;;;;;3.90;1.45;;;19.70;99.90;;;;;;5036359;28;20428;-68
2023/08/12 04:09:05;;;;;;;0.47;0.47;;;19.70;99.90;;;;;;5037510;28;20026;-77
2023/08/12 04:11:30;;;;;;;1.02;1.02;;;19.80;99.90;;;;;;5038460;28;20371;-69
2023/08/12 04:13:56;;;;;;;1.02;1.02;;;19.70;99.90;;;;;;5037377;28;20057;-68
2023/08/12 04:16:23;;;;;;;0.50;0.50;;;19.70;99.90;;;;;;5036567;28;20041;-68
2023/08/12 04:18:48;;;;;;;0.85;0.85;;;19.70;99.90;;;;;;5037520;28;20033;-86
2023/08/12 04:21:14;;;;;;;0.67;0.67;;;19.70;99.90;;;;;;5038012;28;20034;-69
2023/08/12 04:23:40;;;;;;;1.60;1.33;;;19.80;99.90;;;;;;5053248;28;20030;-68
2023/08/12 04:26:05;;;;;;;1.43;1.33;;;19.70;99.90;;;;;;5033717;28;20356;-68
2023/08/12 04:28:31;;;;;;;0.40;0.40;;;19.70;99.90;;;;;;5037129;28;20056;-79
2023/08/12 04:30:57;;;;;;;1.65;1.55;;;19.70;99.90;;;;;;5036641;28;20026;-68
2023/08/12 04:33:23;;;;;;;4.97;1.25;;;19.70;99.90;;;;;;5029602;28;20070;-69
2023/08/12 04:35:49;;;;;;;2.92;1.83;;;19.70;99.90;;;;;;5044331;28;20404;-83
2023/08/12 04:38:15;;;;;;;1.63;1.53;;;19.70;99.90;;;;;;5028599;28;20049;-68
2023/08/12 04:40:42;;;;;;;1.17;1.07;;;19.70;99.90;;;;;;5031943;28;20370;-68
2023/08/12 04:43:08;;;;;;;;;;;19.70;99.90;;;;;;5037458;28;20025;-68
2023/08/12 04:45:34;;;;;;;0.20;0.20;;;19.70;99.90;;;;;;5036396;28;19905;-69
2023/08/12 04:48:00;;;;;;;2.13;1.88;;;19.80;99.90;;;;;;5037710;28;20036;-69
2023/08/12 04:50:29;;;;;;;0.88;0.88;;;19.80;99.90;;;;;;5036582;28;20021;-69
2023/08/12 04:52:55;;;;;;;1.27;1.00;;;19.70;99.90;;;;;;5025742;28;20037;-84
2023/08/12 04:55:21;;;;;;;0.93;0.87;;;19.70;99.90;;;;;;5036908;28;20356;-69
2023/08/12 04:57:47;;;;;;;1.48;1.17;;;19.70;99.90;;;;;;5037356;28;20021;-69
2023/08/12 05:00:14;;;;;;;1.85;1.58;;;19.70;99.90;;;;;;5036022;28;20034;-68
2023/08/12 05:02:40;;;;;;;1.58;0.85;;;19.70;99.90;;;;;;5031544;28;20018;-69
2023/08/12 05:05:06;;;;;;;2.03;1.40;;;19.70;99.90;;;;;;5023337;28;20036;-69
2023/08/12 05:07:33;;;;;;;0.68;0.68;;;19.70;99.90;;;;;;5019703;28;20026;-68
2023/08/12 05:09:59;;;;;;;0.70;0.70;;;19.70;99.90;;;;;;5038599;28;20429;-84
2023/08/12 05:12:25;;;;;;;0.60;0.60;;;19.70;99.90;;;;;;5025366;28;20044;-69
2023/08/12 05:14:51;;;;;;;1.27;0.80;;;19.70;99.90;;;;;;5047360;28;20052;-69
2023/08/12 05:17:17;;;;;;;1.10;1.00;;;19.80;99.90;;;;;;5031135;28;20014;-68
2023/08/12 05:19:42;;;;;;;1.38;1.05;;;19.90;99.90;;;;;;5027109;28;20749;-70
2023/08/12 05:22:08;;;;;;;0.50;0.50;;;19.80;99.90;;;;;;5032785;28;20034;-69
2023/08/12 05:24:34;;;;;;;2.08;1.95;;;19.90;99.90;;;;;;5037225;28;20432;-68
2023/08/12 05:27:00;;;;;;;4.43;0.57;;;19.90;99.90;;;;;;5036429;28;20381;-69
2023/08/12 05:29:26;;;;;;;1.20;1.00;;;19.90;99.90;;;;;;5035669;28;20681;-69
2023/08/12 05:31:53;;;;;;;1.15;1.05;;;20.00;99.90;;;;;;5032067;28;20033;-69
2023/08/12 05:34:19;;;;;;;3.63;2.05;;;20.00;99.90;;;;;;5037939;28;20033;-69
2023/08/12 05:36:44;;;;;;;1.00;1.00;;;20.00;99.90;;;;;;5039355;28;20018;-82
2023/08/12 05:39:11;;;;;;;1.23;1.13;;;20.00;99.90;;;;;;5035907;28;20094;-68
2023/08/12 05:41:36;;;;;;;1.35;1.25;;;20.00;99.90;;;;;;5033186;28;20021;-68
2023/08/12 05:44:03;;;;;;;2.42;2.13;;;20.00;99.90;;;;;;5035015;28;20021;-69
2023/08/12 05:46:28;;;;;;;1.58;1.33;;;20.00;99.90;;;;;;5035929;28;20022;-69
2023/08/12 05:48:54;;;;;;;3.43;1.50;;;20.10;99.90;;;;;;5037454;28;20029;-69
2023/08/12 05:51:20;;;;;;;0.80;0.80;;;20.10;99.90;;;;;;5037981;28;20428;-68
2023/08/12 05:53:46;;;;;;;31.07;3.30;;;20.10;99.90;;;;;;5035693;28;20113;-82
2023/08/12 05:56:12;;;;;;;3.53;2.33;;;20.10;99.90;;;;;;5037020;28;20052;-69
2023/08/12 05:58:38;;;;;;;0.98;0.98;;;20.10;99.90;;;;;;5034144;28;20028;-69
2023/08/12 06:01:04;;;;;;;0.50;0.50;;;20.10;99.90;;;;;;5036049;28;20033;-69
2023/08/12 06:03:30;;;;;;;1.40;0.87;;;20.10;99.90;;;;;;5030635;28;20328;-80
2023/08/12 06:05:55;;;;;;;0.77;0.77;;;20.20;99.90;;;;;;5039351;28;20021;-69
2023/08/12 06:08:21;;;;;;;3.70;1.37;;;20.20;99.90;;;;;;5037674;28;20028;-69
2023/08/12 06:10:47;;;;;;;0.88;0.52;;;20.20;99.90;;;;;;5035612;28;20055;-69
2023/08/12 06:13:13;;;;;;;1.42;1.33;;;20.20;99.90;;;;;;5036546;28;20056;-68
2023/08/12 06:15:39;;;;;;;0.32;0.32;;;20.20;99.90;;;;;;5036001;28;20090;-68
2023/08/12 06:18:05;;;;;;;1.27;1.17;;;20.20;99.90;;;;;;5032858;28;20041;-68
2023/08/12 06:20:31;;;;;;;0.57;0.52;;;20.20;99.90;;;;;;5032634;28;20022;-68
2023/08/12 06:22:57;;;;;;;2.97;1.58;;;20.20;99.90;;;;;;5032612;28;20034;-68
2023/08/12 06:25:23;;;;;;;0.40;0.40;;;20.20;99.90;;;;;;5033001;28;20420;-69
2023/08/12 06:27:49;;;;;;;1.33;1.23;;;20.20;99.90;;;;;;5031498;28;20040;-69
2023/08/12 06:30:14;;;;;;;0.83;0.83;;;20.20;99.90;;;;;;5027292;28;20020;-69
2023/08/12 06:32:40;;;;;;;1.33;1.30;;;20.20;99.90;;;;;;5039499;28;20025;-70
2023/08/12 06:35:07;;;;;;;0.60;0.60;;;20.20;99.90;;;;;;5042327;28;20042;-70
2023/08/12 06:37:33;;;;;;;0.93;0.90;;;20.20;99.90;;;;;;5050360;28;20109;-70
2023/08/12 06:39:59;;;;;;;1.70;1.55;;;20.10;99.90;;;;;;5044622;28;20491;-70
2023/08/12 06:42:25;;;;;;;0.30;0.30;;;20.10;99.90;;;;;;5051363;28;20375;-70
2023/08/12 06:44:56;;;;;;;0.43;0.43;;;20.10;99.90;;;;;;5047524;28;20033;-71
2023/08/12 06:47:22;;;;;;;0.98;0.70;;;20.00;99.90;;;;;;5043317;28;20038;-71
2023/08/12 06:49:48;;;;;;;1.00;0.85;;;20.00;99.90;;;;;;5042826;28;20095;-70
2023/08/12 06:52:14;;;;;;;3.40;1.63;;;20.00;99.90;;;;;;5053313;28;20025;-71
2023/08/12 06:54:40;;;;;;;0.38;0.38;;;20.00;99.90;;;;;;5036852;28;20031;-71
2023/08/12 06:57:06;;;;;;;7.57;1.42;;;20.00;99.90;;;;;;5043781;28;20026;-70
2023/08/12 06:59:32;;;;;;;0.73;0.73;;;19.90;99.90;;;;;;5035673;28;20052;-70
2023/08/12 07:01:58;;;;;;;0.23;0.23;;;19.90;99.90;;;;;;5031092;28;20037;-70
2023/08/12 07:04:24;;;;;;;5.68;1.27;;;19.90;99.90;;;;;;5037792;28;20026;-70
2023/08/12 07:06:49;;;;;;;0.52;0.52;;;19.90;99.90;;;;;;5034304;28;20034;-70
2023/08/12 07:09:15;;;;;;;0.30;0.30;;;19.90;99.90;;;;;;5037831;28;20091;-70
2023/08/12 07:11:41;;;;;;;0.38;0.38;;;19.90;99.90;;;;;;5030762;28;20025;-70
2023/08/12 07:14:07;;;;;;;0.23;0.23;;;19.90;99.90;;;;;;5039756;28;20040;-71
2023/08/12 07:16:33;;;;;;;0.03;0.03;;;19.90;99.90;;;;;;5029604;28;20258;-71
2023/08/12 07:18:59;;;;;;;0.63;0.55;;;19.80;99.90;;;;;;5036347;28;20594;-70
2023/08/12 07:21:25;;;;;;;0.20;0.20;;;19.90;99.90;;;;;;5035253;28;20021;-70
2023/08/12 07:23:51;;;;;;;0.10;0.10;;;19.90;99.90;;;;;;5047642;28;20029;-70
2023/08/12 07:26:17;;;;;;;0.30;0.30;;;20.00;99.90;;;;;;5032389;28;20029;-70
2023/08/12 07:28:43;;;;;;;0.47;0.10;;;20.00;99.90;;;;;;5030182;28;20151;-70
2023/08/12 07:31:09;;;;;;;4.75;1.15;;;20.00;99.90;;;;;;5037303;28;20112;-71
2023/08/12 07:33:35;;;;;;;0.20;0.20;;;20.00;99.90;;;;;;5036144;28;20034;-70
2023/08/12 07:36:01;;;;;;;0.00;0.00;;;20.00;99.90;;;;;;5022344;28;20085;-71
2023/08/12 07:38:27;;;;;;;;;;;20.00;99.90;;;;;;5023869;28;20022;-70
2023/08/12 07:40:54;;;;;;;0.10;0.10;;;20.00;99.90;;;;;;5026815;28;19919;-70
2023/08/12 07:43:20;;;;;;;0.03;0.03;;;20.00;99.90;;;;;;5031684;28;20037;-70
2023/08/12 07:45:50;;;;;;;0.80;0.80;;;20.00;99.90;;;;;;5025194;28;20079;-70
2023/08/12 07:48:16;;;;;;;0.00;0.00;;;20.00;99.90;;;;;;5026413;28;20056;-70
2023/08/12 07:50:41;;;;;;;0.20;0.20;;;19.90;99.90;;;;;;5026113;28;20432;-71
2023/08/12 07:53:07;;;;;;;0.27;0.27;;;19.90;99.90;;;;;;5014735;28;20105;-70
2023/08/12 07:55:34;;;;;;;0.03;0.03;;;19.90;99.90;;;;;;5021611;28;20028;-71
2023/08/12 07:58:00;;;;;;;0.17;0.17;;;19.90;99.90;;;;;;5018785;28;20029;-71
2023/08/12 08:00:26;;;;;;;0.05;0.05;;;19.90;99.90;;;;;;5024015;28;20029;-71
2023/08/12 08:02:52;;;;;;;0.00;0.00;;;19.90;99.90;;;;;;5015294;28;20041;-71
2023/08/12 08:05:17;;;;;;;0.00;0.00;;;19.80;99.90;;;;;;5023288;28;20033;-71
2023/08/12 08:07:43;;;;;;;0.00;0.00;;;19.80;99.90;;;;;;5023203;28;20025;-71
2023/08/12 08:10:10;;;;;;;0.00;0.00;;;19.80;99.90;;;;;;5026248;28;20356;-71
2023/08/12 08:12:36;;;;;;;0.17;0.17;;;19.80;99.90;;;;;;5042381;28;20025;-71
2023/08/12 08:15:03;;;;;;;0.00;0.00;;;19.80;99.90;;;;;;5035424;28;20079;-71
2023/08/12 08:17:29;;;;;;;0.00;0.00;;;19.80;99.90;;;;;;5035069;28;20032;-72
2023/08/12 08:19:54;;;;;;;0.00;0.00;;;19.80;99.90;;;;;;5029574;28;20038;-71
2023/08/12 08:22:20;;;;;;;0.20;0.20;;;19.70;99.90;;;;;;5041010;28;20029;-71
2023/08/12 08:24:46;;;;;;;0.00;0.00;;;19.40;99.90;;;;;;5037682;28;20052;-71
2023/08/12 08:27:13;;;;;;;0.10;0.10;;;19.10;99.90;;;;;;5030596;28;20053;-70
2023/08/12 08:29:39;;;;;;;0.00;0.00;;;19.00;99.90;;;;;;5033639;28;20116;-71
2023/08/12 08:32:05;;;;;;;0.00;0.00;;;18.70;99.90;;;;;;5027173;28;20112;-71
2023/08/12 08:34:30;;;;;;;0.20;0.20;;;18.50;99.90;;;;;;5032492;28;20034;-72
2023/08/12 08:36:56;;;;;;;0.30;0.30;;;18.40;99.90;;;;;;5020877;28;20030;-71
2023/08/12 08:39:22;;;;;;;0.07;0.07;;;18.20;99.90;;;;;;5026619;28;20450;-71
2023/08/12 08:41:48;;;;;;;0.00;0.00;;;18.10;99.90;;;;;;5030245;28;20022;-71
2023/08/12 08:44:15;;;;;;;0.20;0.20;;;17.90;99.90;;;;;;5030578;28;20053;-72
2023/08/12 08:46:43;;;;;;;0.10;0.10;;;17.80;99.90;;;;;;5031017;28;20620;-71
2023/08/12 08:49:10;;;;;;;0.25;0.25;;;17.70;99.90;;;;;;5025797;28;20026;-84
2023/08/12 08:51:37;;;;;;;0.15;0.15;;;17.60;99.90;;;;;;5027142;28;20460;-72
2023/08/12 08:54:06;;;;;;;0.90;0.55;;;17.60;99.90;;;;;;5036101;28;20033;-72
2023/08/12 08:56:32;;;;;;;0.47;0.17;;;17.50;99.90;;;;;;5039838;28;20069;-72
2023/08/12 08:58:58;;;;;;;0.10;0.10;;;17.50;99.90;;;;;;5039372;28;20416;-72
2023/08/12 09:01:25;;;;;;;1.52;0.38;;;17.50;99.90;;;;;;5043540;28;20328;-72
2023/08/12 09:03:53;;;;;;;0.00;0.00;;;17.60;99.90;;;;;;5037658;28;20030;-72
2023/08/12 09:06:22;;;;;;;0.03;0.03;;;17.60;99.90;;;;;;5028409;28;20026;-72
2023/08/12 09:08:51;;;;;;;1.27;0.80;;;17.60;99.90;;;;;;5029351;28;20041;-73
2023/08/12 09:11:18;;;;;;;0.10;0.10;;;17.50;99.90;;;;;;5046222;28;20026;-72
2023/08/12 09:13:44;;;;;;;0.17;0.17;;;17.60;99.90;;;;;;5035443;28;20032;-72
2023/08/12 09:16:10;;;;;;;0.10;0.10;;;17.60;99.90;;;;;;5049040;28;20033;-85
2023/08/12 09:18:37;;;;;;;0.20;0.20;;;17.60;99.90;;;;;;5038361;28;20087;-72
2023/08/12 09:21:04;;;;;;;0.00;0.00;;;17.60;99.90;;;;;;5042767;28;20366;-72
2023/08/12 09:23:39;;;;;;;;;;;17.70;99.90;;;;;;5026341;28;20036;-93
2023/08/12 09:26:15;;;;;;;0.10;0.10;;;17.80;99.90;;;;;;5027542;28;19978;-72
2023/08/12 09:28:42;;;;;;;0.20;0.20;;;17.80;99.90;;;;;;5043662;28;20022;-72
2023/08/12 09:31:08;;;;;;;0.10;0.10;;;17.90;99.90;;;;;;5042438;28;20416;-72
2023/08/12 09:33:39;;;;;;;0.00;0.00;;;18.00;99.90;;;;;;5033737;28;20026;-72
2023/08/12 09:36:05;;;;;;;0.00;0.00;;;18.10;99.90;;;;;;5029794;28;20108;-72
2023/08/12 09:38:31;;;;;;;0.20;0.20;;;18.20;99.90;;;;;;5037512;28;20109;-72
2023/08/12 09:40:57;;;;;;;0.40;0.40;;;18.30;99.90;;;;;;5065820;28;20024;-72
2023/08/12 09:43:29;;;;;;;0.10;0.10;;;18.30;99.90;;;;;;5032420;28;20029;-72
2023/08/12 09:46:00;;;;;;;0.00;0.00;;;18.40;99.90;;;;;;5042300;28;20055;-72
2023/08/12 09:48:26;;;;;;;4.82;1.70;;;18.50;99.90;;;;;;5050219;28;20021;-72
2023/08/12 09:50:53;;;;;;;0.07;0.07;;;18.50;99.90;;;;;;5050857;28;20404;-71
2023/08/12 09:53:21;;;;;;;3.33;1.48;;;18.70;99.90;;;;;;5048460;28;20280;-75
2023/08/12 09:55:49;;;;;;;0.22;0.20;;;18.70;99.90;;;;;;5046076;28;20033;-71
2023/08/12 09:58:18;;;;;;;0.17;0.10;;;18.80;99.90;;;;;;5031708;28;20426;-71
2023/08/12 10:00:45;;;;;;;1.02;0.47;;;18.90;99.90;;;;;;5039041;28;20103;-71
2023/08/12 10:03:14;;;;;;;1.02;0.57;;;18.90;99.90;;;;;;5035567;28;20021;-71
2023/08/12 10:05:40;;;;;;;0.95;0.82;;;19.00;99.90;;;;;;5029773;28;20060;-71
2023/08/12 10:08:07;;;;;;;7.07;1.40;;;19.10;99.90;;;;;;5037024;28;20072;-71
2023/08/12 10:10:35;;;;;;;0.47;0.47;;;19.30;99.90;;;;;;5029552;28;20030;-70
2023/08/12 10:13:01;;;;;;;0.93;0.93;;;19.60;99.90;;;;;;5047390;28;20025;-71
2023/08/12 10:15:28;;;;;;;0.55;0.55;;;19.70;99.90;;;;;;5031518;28;20035;-70
2023/08/12 10:17:56;;;;;;;0.28;0.28;;;19.80;99.90;;;;;;5038662;28;20041;-70
2023/08/12 10:20:24;;;;;;;0.17;0.17;;;19.90;99.90;;;;;;5028424;28;20136;-70
2023/08/12 10:22:51;;;;;;;0.10;0.10;;;20.10;99.90;;;;;;5043338;28;20039;-71
2023/08/12 10:25:21;;;;;;;2.83;1.17;;;20.40;99.90;;;;;;5037751;28;20360;-71
2023/08/12 10:27:48;;;;;;;0.00;0.00;;;20.60;99.90;;;;;;5044657;28;20017;-70
2023/08/12 10:30:14;;;;;;;1.25;0.95;;;20.60;99.90;;;;;;5039318;28;20029;-70
2023/08/12 10:32:42;;;;;;;0.00;0.00;;;20.70;99.90;;;;;;5035871;28;20033;-71
2023/08/12 10:35:09;;;;;;;0.35;0.35;;;20.90;99.90;;;;;;5037039;28;20083;-70
2023/08/12 10:37:35;;;;;;;0.30;0.30;;;21.10;99.90;;;;;;5041461;28;20021;-71
2023/08/12 10:40:08;;;;;;;0.38;0.38;;;20.90;99.90;;;;;;5039614;28;20049;-71
2023/08/12 10:42:42;;;;;;;0.10;0.10;;;20.90;99.90;;;;;;5049841;28;20029;-71
2023/08/12 10:45:09;;;;;;;0.00;0.00;;;20.90;99.90;;;;;;5031420;28;20029;-70
2023/08/12 10:47:44;;;;;;;0.30;0.30;;;21.00;99.90;;;;;;5025092;28;20029;-70
2023/08/12 10:50:25;;;;;;;0.03;0.03;;;21.10;99.90;;;;;;5033111;28;20029;-70
2023/08/12 10:52:52;;;;;;;0.00;0.00;;;21.30;99.90;;;;;;5017849;28;20030;-88
2023/08/12 10:55:21;;;;;;;0.20;0.20;;;21.60;99.90;;;;;;5015758;28;20022;-71
2023/08/12 10:57:55;;;;;;;18.98;0.88;;;21.80;99.90;;;;;;5016179;28;20014;-71
2023/08/12 11:00:25;;;;;;;1.73;0.52;;;21.80;99.90;;;;;;5016402;28;20029;-70
2023/08/12 11:02:53;;;;;;;0.10;0.10;;;21.80;99.90;;;;;;5016282;28;20033;-70
2023/08/12 11:05:20;;;;;;;0.00;0.00;;;22.00;99.90;;;;;;5027276;28;20044;-71
2023/08/12 11:07:56;;;;;;;0.20;0.20;;;22.10;99.90;;;;;;5029116;28;20030;-70
2023/08/12 11:10:26;;;;;;;0.10;0.10;;;22.10;99.90;;;;;;5015142;28;20044;-70
2023/08/12 11:12:52;;;;;;;0.10;0.10;;;22.30;99.90;;;;;;5027048;28;20041;-72
2023/08/12 11:15:28;;;;;;;0.00;0.00;;;22.40;99.90;;;;;;5029614;28;20025;-71
2023/08/12 11:17:54;;;;;;;;;;;22.50;99.90;;;;;;5028049;28;20022;-70
2023/08/12 11:20:20;;;;;;;0.10;0.10;;;22.70;99.90;;;;;;5031403;28;19921;-72
2023/08/12 11:22:46;;;;;;;0.00;0.00;;;22.90;99.90;;;;;;5028429;28;20076;-70
2023/08/12 11:25:14;;;;;;;0.47;0.47;;;22.90;99.90;;;;;;5026346;28;20041;-70
2023/08/12 11:27:44;;;;;;;0.55;0.55;;;22.90;99.90;;;;;;5034143;28;20436;-70
2023/08/12 11:30:16;;;;;;;0.22;0.22;;;23.00;99.90;;;;;;5030618;28;20328;-71
2023/08/12 11:32:47;;;;;;;0.77;0.40;;;23.10;99.90;;;;;;5032906;28;20037;-70
2023/08/12 11:35:14;;;;;;;0.50;0.50;;;23.20;99.90;;;;;;5034607;28;20025;-71
2023/08/12 11:37:42;;;;;;;0.63;0.40;;;23.30;99.90;;;;;;5034524;28;20025;-71
2023/08/12 11:40:10;;;;;;;0.40;0.40;;;23.20;99.90;;;;;;5028177;28;20065;-90
2023/08/12 11:42:40;;;;;;;0.03;0.03;;;23.20;99.90;;;;;;5033590;28;20100;-70
2023/08/12 11:45:07;;;;;;;0.10;0.10;;;23.40;99.90;;;;;;5032302;28;20025;-81
2023/08/12 11:47:38;;;;;;;0.38;0.38;;;23.30;99.90;;;;;;5040120;28;20026;-71
2023/08/12 11:50:07;;;;;;;0.10;0.10;;;23.50;99.90;;;;;;5020911;28;20321;-70
2023/08/12 11:52:35;;;;;;;0.10;0.10;;;23.50;99.90;;;;;;5025122;28;20113;-71
2023/08/12 11:55:01;;;;;;;0.10;0.10;;;23.50;99.90;;;;;;5029571;28;20037;-70
2023/08/12 11:57:28;;;;;;;0.40;0.40;;;23.60;99.90;;;;;;5050057;28;20316;-70
2023/08/12 12:00:00;;;;;;;;;;;23.60;99.90;;;;;;5034769;28;20313;-70
2023/08/12 12:02:26;;;;;;;0.10;0.10;;;23.60;99.90;;;;;;5023604;28;19916;-70
2023/08/12 12:04:52;;;;;;;0.10;0.10;;;23.70;99.90;;;;;;5030001;28;20041;-70
2023/08/12 12:07:25;;;;;;;0.20;0.20;;;23.70;99.90;;;;;;5025994;28;20045;-79
2023/08/12 12:09:54;;;;;;;0.17;0.17;;;23.70;99.90;;;;;;5029819;28;20121;-70
2023/08/12 12:12:26;;;;;;;0.15;0.13;;;23.80;99.90;;;;;;5039430;28;20036;-70
2023/08/12 12:14:56;;;;;;;0.00;0.00;;;24.00;99.90;;;;;;5029218;28;20332;-71
2023/08/12 12:17:23;;;;;;;2.40;0.82;;;24.00;99.90;;;;;;5024732;28;20034;-82
2023/08/12 12:19:59;;;;;;;1.10;0.75;;;24.10;99.90;;;;;;5026122;28;20030;-70
2023/08/12 12:22:34;;;;;;;;;;;24.10;99.90;;;;;;5029601;28;20020;-71
2023/08/12 12:25:06;;;;;;;0.10;0.10;;;24.10;99.90;;;;;;5029309;28;19917;-70
2023/08/12 12:27:33;;;;;;;0.20;0.20;;;24.10;99.90;;;;;;5030861;28;20379;-71
2023/08/12 12:29:59;;;;;;;1.52;0.65;;;24.30;99.90;;;;;;5033114;28;20037;-87
2023/08/12 12:32:25;;;;;;;0.00;0.00;;;24.30;99.90;;;;;;5028114;28;20112;-70
2023/08/12 12:34:52;;;;;;;0.20;0.20;;;24.50;99.90;;;;;;5032622;28;20033;-70
2023/08/12 12:37:17;;;;;;;;;;;24.50;99.90;;;;;;5033645;28;20108;-70
2023/08/12 12:39:43;;;;;;;0.08;0.08;;;24.60;99.90;;;;;;5038444;28;20319;-69
2023/08/12 12:42:10;;;;;;;1.00;0.77;;;24.70;99.90;;;;;;5034558;28;20413;-84
2023/08/12 12:44:36;;;;;;;0.03;0.03;;;24.60;99.90;;;;;;5035592;28;20026;-70
2023/08/12 12:47:03;;;;;;;0.03;0.03;;;24.40;99.90;;;;;;5026269;28;20022;-81